메인 페이지
METAR-TAF:

METAR-TAF

공항 :

오악사카 주, 멕시코

위도: 16-58N, 경도: 096-44W, 고도: 1528m

현재 날씨관측

예보는 2 시간 45분 전, 04:27시(UTC)에 발표되었습니다.
3kt
온도 18°C
습도 94%
기압 1019 hPa
시정: 12.9km
고도 3000ft 상공 구름 조금
고도 8000ft 상공 구름 많음
고도 18000ft 상공 흐림
약한비

METAR: MMOX 210427Z 35003KT 8SM -RA FEW030 BKN080 OVC180 18/17 A3008 RMK 8/422

시각: 02:12 (07:12 UTC)

예보

예보는 1 시간 46분 전, 05:26시(UTC)에 발표되었습니다.
예보 대상 시간: 21일 06시부터 22일 06시까지 (UTC)
동남동5kt
시정: 6.4km
고도 2000ft 상공 구름 많음
고도 4000ft 상공 흐림
연무
일시적
21일 10시부터 21일 14시까지 (UTC)
시정: 3.2km
고도 2000ft 상공 구름 많음, 적란운.
뇌우, 비
21일 1400시부터 (UTC)
남남동5kt
시정: 8.0km
고도 2000ft 상공 구름 많음
연무
21일 1800시부터 (UTC)
남남동10kt
시정: 6.4km
고도 2000ft 상공 구름 많음, 적란운.
연무
일시적
21일 20시부터 21일 23시까지 (UTC)
시정: 6.4km
뇌우, 약한비
22일 0000시부터 (UTC)
북북동10kt
시정: 4.8km
고도 1500ft 상공 구름 많음
연무,

TAF: MMOX 210526Z 2106/2206 11005KT 4SM HZ BKN020 OVC040 TEMPO 2110/2114 2SM TSRA BKN020CB FM211400 15005KT 5SM HZ BKN020 FM211800 15010KT 4SM HZ BKN020CB TEMPO 2120/2123 4SM -TSRA FM220000 03010KT 3SM HZ BKN015

4,000개 이상의 공항 관측 자료 및 예보 (METAR 및 TAF 보고).

지도상에서 검색 가능한 기상관측소가 노란 점과 빨간 점으로 표시되어 있습니다.

기상관측소 명을 보려면 표시 위로 마우스를 이동하세요.

날씨 관측과 예보를 보려면 클릭하세요.

지도 변경 : 확대하려면 엑스 표시가 있는 녹색 버튼, 축소하려면 빼기 표시가 있는 녹색 버튼, 다음 페이지의 지도를 보려면 녹색 화살표를 클릭하세요.


METAR-TAF: